Mermaid Express — H9PV — position and weather

sailwx.info

Track history (hours):
 
Tides and Currents Weather Stations Pressure Air Temp Water Temp Dewpoint Dewpoint Depression Visibility Wind Speed Wind Dir Waves Ship Positions

Mermaid Express

Last reported at 2015-Aug-01 11:32 UTC. Time now 2015-Aug-31 02:35 UTC.
Position N 01°15' E 104°09'.
Warning: this ship's position is 29 days out of date.

Length 179 m; draft 10.9 m.

Type: Tanker. MMSI: 352866000.

Date/timePositionNaut miles runAvg speedWind from/ knotsBaromVisibWave heightAir tempDewpointWater temp
2015-Aug-01 11:32N 01°15' E 104°09'7 7.2
2015-Aug-01 10:34N 01°21' E 104°04'  
2015-Jul-28 20:33N 01°23' E 104°01'  
2015-Jul-26 04:07N 01°18' E 104°07'3 5.0
2015-Jul-26 03:32N 01°16' E 104°06'8 7.9
2015-Jul-26 02:33N 01°15' E 103°58'2 2.2
2015-Jul-26 01:24N 01°16' E 103°56'0 0.0
2015-Jul-26 00:27N 01°16' E 103°56'0 0.0
2015-Jul-25 23:24N 01°16' E 103°56'0 0.1
2015-Jul-25 22:30N 01°16' E 103°56'0 0.0
2015-Jul-25 21:33N 01°15' E 103°56'0 0.0
2015-Jul-25 20:30N 01°15' E 103°56'0 0.0
2015-Jul-25 19:24N 01°16' E 103°56'0 0.0
2015-Jul-25 18:24N 01°16' E 103°56'0 0.0
2015-Jul-25 17:33N 01°15' E 103°56'0 0.0
2015-Jul-25 16:33N 01°15' E 103°56'0 0.0
2015-Jul-25 15:30N 01°15' E 103°56'0 0.1
2015-Jul-25 14:21N 01°16' E 103°56'0 0.0
2015-Jul-25 13:27N 01°16' E 103°56'0 0.1
2015-Jul-25 12:30N 01°16' E 103°56'0 0.0
2015-Jul-25 11:33N 01°16' E 103°56'0 0.0
2015-Jul-25 10:30N 01°15' E 103°56'0 0.1
2015-Jul-25 09:30N 01°15' E 103°56'0 0.0
2015-Jul-25 08:33N 01°15' E 103°56'0 0.1
2015-Jul-25 07:33N 01°15' E 103°55'0 0.4
2015-Jul-25 06:33N 01°15' E 103°55'2 2.0
2015-Jul-25 05:33N 01°15' E 103°57'7 7.1
2015-Jul-25 04:33N 01°11' E 103°51'13311.0
2015-Jul-24 16:25N 02°12' E 101°53'2513.4
2015-Jul-24 14:33N 02°28' E 101°33'1612.9
2015-Jul-24 13:20N 02°37' E 101°21'2212.6
2015-Jul-24 11:33N 02°48' E 101°01'  
Track history (hours):
 
Tides and Currents Weather Stations Pressure Air Temp Water Temp Dewpoint Dewpoint Depression Visibility Wind Speed Wind Dir Waves Ship Positions

Mermaid Express

Last reported at 2015-Aug-01 11:32 UTC. Time now 2015-Aug-31 02:35 UTC.
Position N 01°15' E 104°09'.
Warning: this ship's position is 29 days out of date.

Length 179 m; draft 10.9 m.

Type: Tanker. MMSI: 352866000.

Date/timePositionNaut miles runAvg speedWind from/ knotsBaromVisibWave heightAir tempDewpointWater temp
2015-Aug-01 11:32N 01°15' E 104°09'7 7.2
2015-Aug-01 10:34N 01°21' E 104°04'  
2015-Jul-28 20:33N 01°23' E 104°01'  
2015-Jul-26 04:07N 01°18' E 104°07'3 5.0
2015-Jul-26 03:32N 01°16' E 104°06'8 7.9
2015-Jul-26 02:33N 01°15' E 103°58'2 2.2
2015-Jul-26 01:24N 01°16' E 103°56'0 0.0
2015-Jul-26 00:27N 01°16' E 103°56'0 0.0
2015-Jul-25 23:24N 01°16' E 103°56'0 0.1
2015-Jul-25 22:30N 01°16' E 103°56'0 0.0
2015-Jul-25 21:33N 01°15' E 103°56'0 0.0
2015-Jul-25 20:30N 01°15' E 103°56'0 0.0
2015-Jul-25 19:24N 01°16' E 103°56'0 0.0
2015-Jul-25 18:24N 01°16' E 103°56'0 0.0
2015-Jul-25 17:33N 01°15' E 103°56'0 0.0
2015-Jul-25 16:33N 01°15' E 103°56'0 0.0
2015-Jul-25 15:30N 01°15' E 103°56'0 0.1
2015-Jul-25 14:21N 01°16' E 103°56'0 0.0
2015-Jul-25 13:27N 01°16' E 103°56'0 0.1
2015-Jul-25 12:30N 01°16' E 103°56'0 0.0
2015-Jul-25 11:33N 01°16' E 103°56'0 0.0
2015-Jul-25 10:30N 01°15' E 103°56'0 0.1
2015-Jul-25 09:30N 01°15' E 103°56'0 0.0
2015-Jul-25 08:33N 01°15' E 103°56'0 0.1
2015-Jul-25 07:33N 01°15' E 103°55'0 0.4
2015-Jul-25 06:33N 01°15' E 103°55'2 2.0
2015-Jul-25 05:33N 01°15' E 103°57'7 7.1
2015-Jul-25 04:33N 01°11' E 103°51'13311.0
2015-Jul-24 16:25N 02°12' E 101°53'2513.4
2015-Jul-24 14:33N 02°28' E 101°33'1612.9
2015-Jul-24 13:20N 02°37' E 101°21'2212.6
2015-Jul-24 11:33N 02°48' E 101°01'  

Dump ship's entire track history